Time;durP1;ratioP1;P1;durP2;ratioP2;P2;SDS_P1;SDS_P2;PMS_P1;PMS_P2;Temp;Humidity;BMP_temperature;BMP_pressure;BME280_temperature;BME280_humidity;BME280_pressure;Samples;Min_cycle;Max_cycle;Signal;HPM_P1;HPM_P2
2020/12/29 00:00:58;;;;;;;40.22;17.88;;;;;;;;;;4932973;29;20106;-77
2020/12/29 00:03:25;;;;;;;37.92;17.33;;;;;;;;;;4932989;29;20489;-78
2020/12/29 00:05:52;;;;;;;37.50;17.17;;;;;;;;;;4933026;29;20103;-78
2020/12/29 00:08:19;;;;;;;41.92;17.27;;;;;;;;;;4932808;29;20516;-77
2020/12/29 00:10:46;;;;;;;39.95;17.08;;;;;;;;;;4933937;29;20131;-77
2020/12/29 00:13:12;;;;;;;40.22;17.45;;;;;;;;;;4932407;29;20130;-78
2020/12/29 00:15:42;;;;;;;41.92;17.45;;;;;;;;;;4944152;28;20105;-78
2020/12/29 00:18:09;;;;;;;39.92;17.95;;;;;;;;;;4954829;28;20082;-77
2020/12/29 00:20:36;;;;;;;42.35;18.17;;;;;;;;;;4963271;28;20065;-77
2020/12/29 00:23:03;;;;;;;41.95;17.98;;;;;;;;;;4962433;28;20484;-77
2020/12/29 00:25:30;;;;;;;45.92;17.63;;;;;;;;;;4970848;28;20095;-77
2020/12/29 00:27:56;;;;;;;42.42;17.73;;;;;;;;;;4971019;28;20240;-77
2020/12/29 00:30:23;;;;;;;41.88;17.90;;;;;;;;;;4971151;28;20125;-77
2020/12/29 00:32:50;;;;;;;44.13;18.35;;;;;;;;;;4971679;28;20058;-78
2020/12/29 00:35:16;;;;;;;48.67;18.23;;;;;;;;;;4971744;28;20484;-78
2020/12/29 00:37:43;;;;;;;46.05;18.85;;;;;;;;;;4970711;28;20133;-77
2020/12/29 00:40:11;;;;;;;39.05;17.13;;;;;;;;;;4970691;28;20050;-77
2020/12/29 00:42:38;;;;;;;43.80;17.83;;;;;;;;;;4970318;28;20059;-77
2020/12/29 00:45:05;;;;;;;44.95;18.60;;;;;;;;;;4970166;28;20090;-77
2020/12/29 00:47:31;;;;;;;47.33;18.95;;;;;;;;;;4969784;28;20129;-78
2020/12/29 00:49:58;;;;;;;49.55;19.55;;;;;;;;;;4970842;28;20121;-77
2020/12/29 00:52:25;;;;;;;40.65;17.88;;;;;;;;;;4949906;28;20563;-77
2020/12/29 00:54:51;;;;;;;42.70;18.45;;;;;;;;;;4959044;28;20141;-77
2020/12/29 00:57:18;;;;;;;47.72;19.02;;;;;;;;;;4954007;28;20564;-77
2020/12/29 00:59:45;;;;;;;40.22;18.00;;;;;;;;;;4954535;28;20658;-77
2020/12/29 01:02:11;;;;;;;45.17;18.48;;;;;;;;;;4970678;28;20134;-77
2020/12/29 01:04:38;;;;;;;48.45;19.00;;;;;;;;;;4969705;28;20094;-77
2020/12/29 01:07:05;;;;;;;45.63;17.55;;;;;;;;;;4970673;28;20090;-77
2020/12/29 01:09:31;;;;;;;49.42;19.20;;;;;;;;;;4969388;28;20137;-77
2020/12/29 01:11:58;;;;;;;47.15;18.75;;;;;;;;;;4951313;28;20059;-77
2020/12/29 01:14:25;;;;;;;52.63;18.80;;;;;;;;;;4950584;28;20122;-78
2020/12/29 01:16:51;;;;;;;50.72;19.65;;;;;;;;;;4950937;29;20789;-77
2020/12/29 01:19:18;;;;;;;53.50;19.17;;;;;;;;;;4951101;29;20575;-78
2020/12/29 01:21:45;;;;;;;53.80;19.88;;;;;;;;;;4951248;29;20102;-78
2020/12/29 01:24:11;;;;;;;49.95;18.77;;;;;;;;;;4950877;28;20086;-78
2020/12/29 01:26:38;;;;;;;60.42;20.33;;;;;;;;;;4951970;29;20051;-78
2020/12/29 01:29:07;;;;;;;52.22;19.48;;;;;;;;;;4952401;28;20133;-79
2020/12/29 01:31:34;;;;;;;44.60;18.48;;;;;;;;;;4952149;28;20154;-79
2020/12/29 01:34:01;;;;;;;50.20;19.80;;;;;;;;;;4953456;28;20063;-78
2020/12/29 01:36:28;;;;;;;51.75;19.15;;;;;;;;;;4952266;29;20138;-79
2020/12/29 01:38:56;;;;;;;52.65;20.50;;;;;;;;;;4951450;29;20091;-79
2020/12/29 01:41:23;;;;;;;54.15;20.50;;;;;;;;;;4952610;28;20130;-79
2020/12/29 01:43:50;;;;;;;68.35;21.60;;;;;;;;;;4952599;28;20083;-79
2020/12/29 01:46:23;;;;;;;59.85;20.35;;;;;;;;;;4954052;28;20102;-79
2020/12/29 01:48:50;;;;;;;48.15;19.83;;;;;;;;;;4953384;29;20055;-80
2020/12/29 01:51:16;;;;;;;53.42;19.95;;;;;;;;;;4949857;29;20134;-80
2020/12/29 01:53:43;;;;;;;48.78;19.88;;;;;;;;;;4934703;29;20115;-80
2020/12/29 01:56:11;;;;;;;45.60;19.55;;;;;;;;;;4952742;29;20409;-79
2020/12/29 01:58:41;;;;;;;49.65;18.77;;;;;;;;;;4955287;29;20051;-80
2020/12/29 02:01:10;;;;;;;48.15;19.85;;;;;;;;;;4956998;28;20047;-80
2020/12/29 02:03:37;;;;;;;48.10;20.15;;;;;;;;;;4955784;29;20047;-81
2020/12/29 02:06:04;;;;;;;48.70;19.25;;;;;;;;;;4938274;28;20122;-81
2020/12/29 02:08:33;;;;;;;44.22;19.05;;;;;;;;;;4937819;29;20078;-81
2020/12/29 02:11:00;;;;;;;49.50;17.98;;;;;;;;;;4936214;29;20572;-81
2020/12/29 02:13:27;;;;;;;51.22;18.45;;;;;;;;;;4936193;29;20135;-81
2020/12/29 02:15:53;;;;;;;44.28;17.80;;;;;;;;;;4948381;29;20130;-82
2020/12/29 02:18:20;;;;;;;47.05;17.52;;;;;;;;;;4955401;28;20088;-82
2020/12/29 02:20:47;;;;;;;47.67;18.42;;;;;;;;;;4956558;28;20086;-82
2020/12/29 02:23:13;;;;;;;44.28;17.20;;;;;;;;;;4955088;29;20516;-82
2020/12/29 02:25:40;;;;;;;41.63;17.25;;;;;;;;;;4956022;28;20066;-82
2020/12/29 02:28:09;;;;;;;45.53;17.08;;;;;;;;;;4955804;28;20498;-82
2020/12/29 02:30:36;;;;;;;35.15;16.42;;;;;;;;;;4955399;28;20055;-83
2020/12/29 02:33:02;;;;;;;40.78;15.45;;;;;;;;;;4956218;28;20051;-83
2020/12/29 02:35:29;;;;;;;46.92;17.88;;;;;;;;;;4955807;28;20125;-82
2020/12/29 02:37:56;;;;;;;46.47;16.35;;;;;;;;;;4955814;28;20086;-83
2020/12/29 02:40:23;;;;;;;41.85;17.00;;;;;;;;;;4955463;28;20105;-83
2020/12/29 02:42:50;;;;;;;44.45;16.05;;;;;;;;;;4956760;28;20051;-83
2020/12/29 02:45:18;;;;;;;37.30;16.17;;;;;;;;;;4955248;28;20043;-83
2020/12/29 02:47:45;;;;;;;37.72;15.63;;;;;;;;;;4955103;29;20047;-82
2020/12/29 02:50:12;;;;;;;43.67;15.82;;;;;;;;;;4955160;29;20062;-82
2020/12/29 02:52:41;;;;;;;37.22;15.23;;;;;;;;;;4954542;28;20051;-82
2020/12/29 02:55:08;;;;;;;38.28;15.93;;;;;;;;;;4954963;29;20051;-81
2020/12/29 02:57:34;;;;;;;34.28;15.13;;;;;;;;;;4953713;28;20830;-81
2020/12/29 03:00:04;;;;;;;41.65;16.20;;;;;;;;;;4954946;28;20047;-81
2020/12/29 03:02:30;;;;;;;37.45;15.75;;;;;;;;;;4954572;29;20051;-82
2020/12/29 03:05:01;;;;;;;41.20;15.23;;;;;;;;;;4954779;29;20076;-81
2020/12/29 03:07:28;;;;;;;41.05;15.80;;;;;;;;;;4954657;29;20051;-81
2020/12/29 03:09:55;;;;;;;38.00;15.95;;;;;;;;;;4954572;29;20058;-80
2020/12/29 03:12:21;;;;;;;39.70;16.30;;;;;;;;;;4955609;28;20130;-81
2020/12/29 03:14:52;;;;;;;35.80;15.75;;;;;;;;;;4954267;28;20146;-80
2020/12/29 03:17:19;;;;;;;37.05;15.75;;;;;;;;;;4954077;29;20083;-80
2020/12/29 03:19:45;;;;;;;38.72;15.88;;;;;;;;;;4952884;28;20047;-79
2020/12/29 03:22:12;;;;;;;35.10;14.85;;;;;;;;;;4952500;28;20082;-79
2020/12/29 03:24:39;;;;;;;36.22;15.75;;;;;;;;;;4952359;28;20083;-79
2020/12/29 03:27:05;;;;;;;34.53;15.27;;;;;;;;;;4951621;29;20760;-79
2020/12/29 03:29:32;;;;;;;37.08;15.02;;;;;;;;;;4952210;28;20051;-78
2020/12/29 03:32:10;;;;;;;38.63;16.45;;;;;;;;;;4952602;29;20078;-78
2020/12/29 03:34:39;;;;;;;44.63;17.42;;;;;;;;;;4952972;29;20732;-78
2020/12/29 03:37:07;;;;;;;42.15;16.08;;;;;;;;;;4954097;28;20051;-79
2020/12/29 03:39:34;;;;;;;39.80;16.23;;;;;;;;;;4953152;29;20129;-79
2020/12/29 03:42:02;;;;;;;40.20;16.23;;;;;;;;;;4953137;29;20086;-79
2020/12/29 03:44:28;;;;;;;45.10;15.10;;;;;;;;;;4953599;29;20078;-79
2020/12/29 03:46:55;;;;;;;44.10;16.80;;;;;;;;;;4952512;29;20051;-79
2020/12/29 03:49:22;;;;;;;39.25;15.60;;;;;;;;;;4952723;28;20142;-79
2020/12/29 03:51:48;;;;;;;37.22;15.85;;;;;;;;;;4952505;29;20055;-79
2020/12/29 03:54:21;;;;;;;38.38;15.05;;;;;;;;;;4952268;29;20078;-79
2020/12/29 03:56:47;;;;;;;38.13;15.32;;;;;;;;;;4951922;29;20150;-78
2020/12/29 03:59:14;;;;;;;35.95;14.93;;;;;;;;;;4951209;29;20048;-79
2020/12/29 04:01:41;;;;;;;41.72;15.90;;;;;;;;;;4950442;28;20137;-79
2020/12/29 04:04:12;;;;;;;38.90;15.23;;;;;;;;;;4951828;29;20392;-79
2020/12/29 04:06:41;;;;;;;50.15;16.83;;;;;;;;;;4952286;28;20051;-79
2020/12/29 04:09:08;;;;;;;37.88;16.23;;;;;;;;;;4953585;28;20492;-79
2020/12/29 04:11:37;;;;;;;42.10;16.65;;;;;;;;;;4952115;29;20146;-78
2020/12/29 04:14:06;;;;;;;42.00;16.02;;;;;;;;;;4953080;28;20095;-78
2020/12/29 04:16:36;;;;;;;44.17;15.40;;;;;;;;;;4953761;28;20165;-79
2020/12/29 04:19:03;;;;;;;36.17;16.05;;;;;;;;;;4952691;28;20578;-79
2020/12/29 04:21:29;;;;;;;39.88;15.95;;;;;;;;;;4949789;29;20839;-79
2020/12/29 04:23:58;;;;;;;51.05;16.25;;;;;;;;;;4950692;28;20126;-79
2020/12/29 04:26:24;;;;;;;43.55;16.48;;;;;;;;;;4950754;29;20153;-78
2020/12/29 04:28:51;;;;;;;52.13;16.75;;;;;;;;;;4951234;28;20719;-78
2020/12/29 04:31:22;;;;;;;50.30;16.23;;;;;;;;;;4951443;29;20668;-78
2020/12/29 04:33:50;;;;;;;44.50;17.27;;;;;;;;;;4951438;28;20106;-78
2020/12/29 04:36:16;;;;;;;50.45;16.05;;;;;;;;;;4952495;28;20125;-78
2020/12/29 04:38:44;;;;;;;45.83;16.58;;;;;;;;;;4952110;28;20126;-79
2020/12/29 04:41:11;;;;;;;49.13;16.20;;;;;;;;;;4951561;29;20852;-79
2020/12/29 04:43:40;;;;;;;55.28;16.42;;;;;;;;;;4952108;28;20085;-78
2020/12/29 04:46:08;;;;;;;49.25;16.52;;;;;;;;;;4951924;28;20057;-78
2020/12/29 04:48:35;;;;;;;51.75;16.55;;;;;;;;;;4951887;29;20138;-78
2020/12/29 04:51:06;;;;;;;38.28;15.85;;;;;;;;;;4951931;29;20893;-78
2020/12/29 04:53:34;;;;;;;40.85;16.30;;;;;;;;;;4951707;29;20469;-78
2020/12/29 04:56:05;;;;;;;46.92;17.77;;;;;;;;;;4951840;29;20058;-79
2020/12/29 04:58:33;;;;;;;46.58;16.90;;;;;;;;;;4951978;28;20059;-78
2020/12/29 05:01:07;;;;;;;47.17;16.48;;;;;;;;;;4952448;28;20089;-79
2020/12/29 05:03:42;;;;;;;42.80;16.42;;;;;;;;;;4951872;28;20071;-79
2020/12/29 05:06:09;;;;;;;45.40;17.98;;;;;;;;;;4951904;29;20087;-79
2020/12/29 05:08:35;;;;;;;43.38;16.13;;;;;;;;;;4951129;28;20086;-79
2020/12/29 05:11:02;;;;;;;43.13;16.77;;;;;;;;;;4952313;28;20082;-79
2020/12/29 05:13:29;;;;;;;45.20;17.05;;;;;;;;;;4952474;28;20138;-78
2020/12/29 05:15:55;;;;;;;43.10;17.52;;;;;;;;;;4952426;28;20079;-79
2020/12/29 05:18:22;;;;;;;44.40;17.67;;;;;;;;;;4953248;28;20043;-79
2020/12/29 05:20:49;;;;;;;56.35;19.27;;;;;;;;;;4954438;28;20126;-78
2020/12/29 05:23:16;;;;;;;54.85;19.33;;;;;;;;;;4956837;28;20054;-79
2020/12/29 05:25:46;;;;;;;50.95;19.60;;;;;;;;;;4956127;29;20043;-79
2020/12/29 05:28:14;;;;;;;55.80;18.23;;;;;;;;;;4955502;29;20473;-79
2020/12/29 05:30:41;;;;;;;69.40;20.02;;;;;;;;;;4955584;29;20063;-79
2020/12/29 05:33:13;;;;;;;46.03;18.05;;;;;;;;;;4954980;28;20087;-78
2020/12/29 05:35:40;;;;;;;53.55;19.08;;;;;;;;;;4955088;29;20589;-78
2020/12/29 05:38:11;;;;;;;45.75;17.02;;;;;;;;;;4956119;28;20121;-78
2020/12/29 05:40:38;;;;;;;45.53;17.55;;;;;;;;;;4954684;28;20496;-79
2020/12/29 05:43:05;;;;;;;44.47;16.98;;;;;;;;;;4955746;28;20058;-78
2020/12/29 05:45:34;;;;;;;41.20;17.02;;;;;;;;;;4954217;28;20131;-78
2020/12/29 05:48:02;;;;;;;47.22;16.83;;;;;;;;;;4942171;28;20400;-78
2020/12/29 05:50:29;;;;;;;49.45;17.75;;;;;;;;;;4953288;28;20070;-77
2020/12/29 05:52:59;;;;;;;46.67;18.40;;;;;;;;;;4958162;28;20139;-78
2020/12/29 05:55:26;;;;;;;49.45;17.00;;;;;;;;;;4954229;29;20259;-78
2020/12/29 05:58:03;;;;;;;49.75;19.13;;;;;;;;;;4970799;28;20137;-77
2020/12/29 06:00:30;;;;;;;45.58;18.27;;;;;;;;;;4959934;28;20060;-77
2020/12/29 06:02:58;;;;;;;48.13;18.98;;;;;;;;;;4950158;28;20105;-78
2020/12/29 06:05:25;;;;;;;56.15;21.60;;;;;;;;;;4961764;28;20055;-77
2020/12/29 06:07:54;;;;;;;54.50;19.73;;;;;;;;;;4953651;28;20055;-77
2020/12/29 06:10:21;;;;;;;55.15;19.75;;;;;;;;;;4951376;29;20146;-77
2020/12/29 06:12:51;;;;;;;51.13;20.15;;;;;;;;;;4953721;29;20728;-79
2020/12/29 06:15:28;;;;;;;53.22;18.73;;;;;;;;;;4953991;29;20079;-78
2020/12/29 06:17:56;;;;;;;63.05;20.42;;;;;;;;;;4953178;29;20146;-78
2020/12/29 06:20:22;;;;;;;65.57;21.10;;;;;;;;;;4952858;29;20102;-79
2020/12/29 06:22:51;;;;;;;62.28;20.75;;;;;;;;;;4953491;29;20087;-79
2020/12/29 06:25:18;;;;;;;62.83;19.58;;;;;;;;;;4953249;29;20138;-78
2020/12/29 06:27:52;;;;;;;53.25;19.83;;;;;;;;;;4954929;28;20093;-78
2020/12/29 06:30:20;;;;;;;66.72;20.73;;;;;;;;;;4953646;28;20078;-79
2020/12/29 06:32:48;;;;;;;62.70;20.50;;;;;;;;;;4954019;29;20083;-79
2020/12/29 06:35:25;;;;;;;64.43;21.75;;;;;;;;;;4956175;28;20067;-79
2020/12/29 06:38:00;;;;;;;69.05;22.30;;;;;;;;;;4966817;28;20464;-79
2020/12/29 06:40:31;;;;;;;66.47;23.42;;;;;;;;;;4966125;28;20144;-79
2020/12/29 06:42:58;;;;;;;67.57;24.00;;;;;;;;;;4959850;28;20078;-79
2020/12/29 06:45:25;;;;;;;75.20;23.98;;;;;;;;;;4965213;28;20046;-77
2020/12/29 06:47:51;;;;;;;63.28;22.70;;;;;;;;;;4961519;28;20134;-78
2020/12/29 06:50:21;;;;;;;68.93;22.20;;;;;;;;;;4965719;28;20062;-79
2020/12/29 06:52:57;;;;;;;73.00;21.58;;;;;;;;;;4963191;28;20073;-78
2020/12/29 06:55:23;;;;;;;68.97;20.52;;;;;;;;;;4972743;28;20100;-79
2020/12/29 06:57:51;;;;;;;74.25;22.65;;;;;;;;;;4967875;28;20484;-79
2020/12/29 07:00:18;;;;;;;77.15;22.17;;;;;;;;;;4973899;28;20047;-78
2020/12/29 07:02:48;;;;;;;87.63;23.05;;;;;;;;;;4971826;28;20117;-78
2020/12/29 07:05:25;;;;;;;78.07;22.30;;;;;;;;;;4973309;28;20094;-79
2020/12/29 07:07:58;;;;;;;73.97;22.23;;;;;;;;;;4971806;28;20061;-78
2020/12/29 07:10:34;;;;;;;101.07;23.75;;;;;;;;;;4971580;28;20100;-78
2020/12/29 07:13:06;;;;;;;87.47;22.83;;;;;;;;;;4971732;28;20166;-78
2020/12/29 07:15:46;;;;;;;77.20;22.30;;;;;;;;;;4971473;28;20464;-78
2020/12/29 07:18:15;;;;;;;95.38;23.15;;;;;;;;;;4972776;28;20105;-78
2020/12/29 07:20:47;;;;;;;102.43;24.17;;;;;;;;;;4966021;28;20923;-78
2020/12/29 07:23:18;;;;;;;85.75;23.90;;;;;;;;;;4962467;28;20047;-77
2020/12/29 07:25:53;;;;;;;90.60;24.52;;;;;;;;;;4967484;28;20039;-77
2020/12/29 07:28:24;;;;;;;127.45;26.13;;;;;;;;;;4969594;28;20130;-78
2020/12/29 07:30:52;;;;;;;109.88;23.80;;;;;;;;;;4956114;28;20078;-78
2020/12/29 07:33:23;;;;;;;122.10;25.70;;;;;;;;;;4960851;28;20134;-78
2020/12/29 07:35:50;;;;;;;112.00;24.63;;;;;;;;;;4961028;28;20078;-78
2020/12/29 07:38:20;;;;;;;107.65;25.40;;;;;;;;;;4964112;28;20121;-78
2020/12/29 07:40:47;;;;;;;117.22;27.25;;;;;;;;;;4965289;28;20051;-80
2020/12/29 07:43:14;;;;;;;87.90;23.17;;;;;;;;;;4961849;28;20093;-80
2020/12/29 07:45:43;;;;;;;106.20;25.48;;;;;;;;;;4967986;28;20082;-80
2020/12/29 07:48:10;;;;;;;129.05;28.13;;;;;;;;;;4965257;28;20130;-80
2020/12/29 07:50:38;;;;;;;117.15;26.48;;;;;;;;;;4966300;28;20082;-81
2020/12/29 07:53:05;;;;;;;125.47;27.52;;;;;;;;;;4965323;28;20059;-81
2020/12/29 07:55:35;;;;;;;109.95;24.65;;;;;;;;;;4973658;28;20583;-80
2020/12/29 07:58:02;;;;;;;107.68;26.77;;;;;;;;;;4957288;28;20059;-80
2020/12/29 08:00:39;;;;;;;109.13;27.88;;;;;;;;;;4963146;28;20125;-79
2020/12/29 08:03:18;;;;;;;125.13;28.38;;;;;;;;;;4948777;28;20040;-80
2020/12/29 08:05:45;;;;;;;124.70;27.08;;;;;;;;;;4961652;28;20797;-82
2020/12/29 08:08:16;;;;;;;111.43;26.77;;;;;;;;;;4954461;28;20118;-81
2020/12/29 08:10:46;;;;;;;115.78;28.38;;;;;;;;;;4958697;28;20459;-81
2020/12/29 08:13:13;;;;;;;118.82;26.45;;;;;;;;;;4970386;28;20632;-80
2020/12/29 08:15:44;;;;;;;113.47;26.45;;;;;;;;;;4970784;28;20059;-80
2020/12/29 08:18:15;;;;;;;130.63;27.88;;;;;;;;;;4970523;28;20063;-81
2020/12/29 08:20:47;;;;;;;102.00;26.67;;;;;;;;;;4968492;28;20098;-81
2020/12/29 08:23:14;;;;;;;145.93;30.77;;;;;;;;;;4971701;28;20083;-80
2020/12/29 08:25:47;;;;;;;115.10;28.98;;;;;;;;;;4971709;28;20077;-79
2020/12/29 08:28:14;;;;;;;120.40;28.27;;;;;;;;;;4972052;28;20154;-79
2020/12/29 08:30:40;;;;;;;135.38;27.77;;;;;;;;;;4973165;28;20109;-78
2020/12/29 08:33:07;;;;;;;123.30;30.13;;;;;;;;;;4973083;28;20109;-79
2020/12/29 08:35:48;;;;;;;140.95;28.98;;;;;;;;;;4971977;28;20110;-79
2020/12/29 08:38:33;;;;;;;115.07;28.27;;;;;;;;;;4971718;28;20055;-79
2020/12/29 08:41:00;;;;;;;;;;;;;;;;;;4972377;28;20093;-78
2020/12/29 08:43:28;;;;;;;108.03;28.48;;;;;;;;;;4972803;28;20058;-79
2020/12/29 08:46:03;;;;;;;131.85;31.20;;;;;;;;;;4971830;28;20050;-78
2020/12/29 08:48:32;;;;;;;123.10;28.75;;;;;;;;;;4972394;28;20054;-79
2020/12/29 08:51:00;;;;;;;128.45;28.45;;;;;;;;;;4971935;28;20703;-78
2020/12/29 08:53:27;;;;;;;158.93;32.15;;;;;;;;;;4971757;28;20050;-77
2020/12/29 08:55:55;;;;;;;134.13;29.80;;;;;;;;;;4974166;28;20073;-77
2020/12/29 08:58:27;;;;;;;136.75;29.67;;;;;;;;;;4973655;28;20051;-77
2020/12/29 09:01:03;;;;;;;122.05;29.88;;;;;;;;;;4973847;28;20123;-78
2020/12/29 09:03:30;;;;;;;132.10;32.58;;;;;;;;;;4969012;28;20824;-77
2020/12/29 09:06:02;;;;;;;122.70;30.83;;;;;;;;;;4955653;28;20083;-76
2020/12/29 09:08:32;;;;;;;112.70;30.40;;;;;;;;;;4956410;29;20058;-78
2020/12/29 09:11:11;;;;;;;111.40;30.10;;;;;;;;;;4939318;28;20083;-78
2020/12/29 09:13:38;;;;;;;117.40;29.73;;;;;;;;;;4937350;29;20071;-78
2020/12/29 09:16:14;;;;;;;109.47;29.75;;;;;;;;;;4958476;28;20105;-83
2020/12/29 09:18:43;;;;;;;131.65;30.08;;;;;;;;;;4967867;28;20058;-82
2020/12/29 09:24:58;;;;;;;111.43;28.48;;;;;;;;;;4944160;29;20062;-86
2020/12/29 09:27:28;;;;;;;139.27;30.88;;;;;;;;;;4980115;28;20496;-85
2020/12/29 09:30:12;;;;;;;104.57;30.13;;;;;;;;;;4965220;28;20047;-88
2020/12/29 09:32:54;;;;;;;114.32;30.20;;;;;;;;;;4960837;29;20531;-91
2020/12/29 09:35:32;;;;;;;131.02;31.67;;;;;;;;;;4962293;29;20078;-90
2020/12/29 09:38:01;;;;;;;126.45;31.75;;;;;;;;;;4962364;29;20083;-91
2020/12/29 09:40:46;;;;;;;125.57;32.17;;;;;;;;;;4964032;29;20044;-86
2020/12/29 09:43:21;;;;;;;116.78;31.02;;;;;;;;;;4937871;29;20588;-88
2020/12/29 09:46:07;;;;;;;108.28;28.92;;;;;;;;;;4962275;29;20061;-85
2020/12/29 09:48:45;;;;;;;;;;;;;;;;;;4963431;29;20051;-86
2020/12/29 09:51:19;;;;;;;110.20;29.38;;;;;;;;;;4961431;28;19930;-82
2020/12/29 09:53:56;;;;;;;111.85;29.50;;;;;;;;;;4957990;29;20059;-83
2020/12/29 09:56:32;;;;;;;131.75;29.02;;;;;;;;;;4958635;29;20066;-84
2020/12/29 09:59:11;;;;;;;117.90;30.30;;;;;;;;;;4960375;29;20064;-87
2020/12/29 10:01:43;;;;;;;111.50;30.08;;;;;;;;;;4941330;29;20051;-84
2020/12/29 10:07:18;;;;;;;117.55;29.90;;;;;;;;;;4964764;28;20054;-86
2020/12/29 10:09:51;;;;;;;115.13;29.95;;;;;;;;;;4961236;28;20452;-83
2020/12/29 10:12:18;;;;;;;102.60;30.02;;;;;;;;;;4963511;28;20047;-84
2020/12/29 10:14:45;;;;;;;110.88;31.23;;;;;;;;;;4978970;28;20137;-85
2020/12/29 10:17:13;;;;;;;109.07;30.13;;;;;;;;;;4960359;28;20051;-87
2020/12/29 10:19:42;;;;;;;106.82;32.03;;;;;;;;;;4965200;28;20650;-86
2020/12/29 10:22:12;;;;;;;107.32;32.95;;;;;;;;;;4945397;28;20068;-86
2020/12/29 10:24:40;;;;;;;124.15;36.10;;;;;;;;;;4939616;29;20185;-86
2020/12/29 10:27:07;;;;;;;124.68;35.13;;;;;;;;;;4941696;29;20484;-86
2020/12/29 10:29:36;;;;;;;128.00;39.08;;;;;;;;;;4942398;29;20048;-88
2020/12/29 10:32:09;;;;;;;120.88;37.45;;;;;;;;;;4946691;28;20055;-86
2020/12/29 10:34:39;;;;;;;303.23;54.63;;;;;;;;;;4974476;28;20051;-91
2020/12/29 10:37:11;;;;;;;165.43;40.13;;;;;;;;;;4955447;28;20047;-91
2020/12/29 10:39:41;;;;;;;168.82;38.83;;;;;;;;;;4941975;29;20048;-87
2020/12/29 10:42:08;;;;;;;113.38;32.17;;;;;;;;;;4940658;29;20054;-87
2020/12/29 10:44:35;;;;;;;136.93;35.90;;;;;;;;;;4942839;29;20561;-85
2020/12/29 10:47:02;;;;;;;95.53;30.48;;;;;;;;;;4959191;28;20098;-84
2020/12/29 10:52:28;;;;;;;96.90;31.23;;;;;;;;;;4956004;28;20062;-84
2020/12/29 10:55:05;;;;;;;95.65;30.42;;;;;;;;;;4962190;28;20058;-83
2020/12/29 10:57:37;;;;;;;101.03;28.55;;;;;;;;;;4964861;28;20062;-84
2020/12/29 11:00:09;;;;;;;93.05;30.15;;;;;;;;;;4963592;28;20094;-86
2020/12/29 11:02:40;;;;;;;109.70;29.67;;;;;;;;;;4953832;29;20055;-83
2020/12/29 11:05:06;;;;;;;98.57;29.33;;;;;;;;;;4937820;29;20052;-83
2020/12/29 11:07:33;;;;;;;95.22;29.38;;;;;;;;;;4939948;28;20075;-82
2020/12/29 11:10:05;;;;;;;92.30;28.80;;;;;;;;;;4952447;28;20067;-83
2020/12/29 11:12:42;;;;;;;88.20;28.70;;;;;;;;;;4966691;28;20105;-83
2020/12/29 11:15:08;;;;;;;89.78;27.85;;;;;;;;;;4957370;28;20130;-83
2020/12/29 11:17:41;;;;;;;83.65;28.50;;;;;;;;;;4953005;28;20059;-84
2020/12/29 11:20:09;;;;;;;89.13;29.52;;;;;;;;;;4939069;28;20531;-84
2020/12/29 11:22:41;;;;;;;87.55;29.17;;;;;;;;;;4947237;29;20055;-84
2020/12/29 11:25:08;;;;;;;83.38;27.35;;;;;;;;;;4953573;29;20742;-84
2020/12/29 11:31:15;;;;;;;81.97;26.52;;;;;;;;;;4943956;29;20038;-87
2020/12/29 11:33:57;;;;;;;84.57;29.33;;;;;;;;;;4964915;28;20051;-87
2020/12/29 11:36:23;;;;;;;82.43;27.67;;;;;;;;;;4953844;29;20055;-87
2020/12/29 11:38:53;;;;;;;77.15;26.38;;;;;;;;;;4953701;28;20043;-84
2020/12/29 11:41:25;;;;;;;83.32;26.83;;;;;;;;;;4946812;29;20118;-86
2020/12/29 11:44:06;;;;;;;80.78;26.08;;;;;;;;;;4947609;29;20523;-84
2020/12/29 11:46:34;;;;;;;78.68;26.23;;;;;;;;;;4953780;29;20581;-84
2020/12/29 11:49:00;;;;;;;72.65;23.95;;;;;;;;;;4954650;28;20055;-83
2020/12/29 11:51:28;;;;;;;72.97;25.08;;;;;;;;;;4952885;28;20757;-83
2020/12/29 11:53:56;;;;;;;70.72;24.85;;;;;;;;;;4953632;28;20504;-84
2020/12/29 11:56:23;;;;;;;66.60;23.40;;;;;;;;;;4953685;29;20142;-83
2020/12/29 11:58:53;;;;;;;66.72;24.13;;;;;;;;;;4941586;28;20146;-83
2020/12/29 12:01:22;;;;;;;68.50;24.35;;;;;;;;;;4949555;29;20085;-86
2020/12/29 12:03:52;;;;;;;69.35;23.67;;;;;;;;;;4944463;28;20051;-85
2020/12/29 12:06:21;;;;;;;69.68;24.13;;;;;;;;;;4933721;29;20489;-86
2020/12/29 12:08:49;;;;;;;71.28;23.65;;;;;;;;;;4934256;29;20134;-85
2020/12/29 12:11:27;;;;;;;79.88;24.58;;;;;;;;;;4934791;29;20056;-86
2020/12/29 12:14:07;;;;;;;77.50;25.88;;;;;;;;;;4933944;29;20058;-82
2020/12/29 12:16:46;;;;;;;72.20;23.15;;;;;;;;;;4933920;29;20052;-86
2020/12/29 12:19:52;;;;;;;69.97;23.00;;;;;;;;;;4935378;29;20059;-83
2020/12/29 12:22:26;;;;;;;65.60;21.20;;;;;;;;;;4935323;29;20119;-86
2020/12/29 12:24:58;;;;;;;69.78;23.88;;;;;;;;;;4947247;29;20048;-84
2020/12/29 12:27:54;;;;;;;67.50;23.25;;;;;;;;;;4944229;29;20875;-85
2020/12/29 12:30:21;;;;;;;60.80;21.95;;;;;;;;;;4952365;28;20069;-86
2020/12/29 12:32:57;;;;;;;69.07;23.05;;;;;;;;;;4953748;28;20053;-84
2020/12/29 12:35:24;;;;;;;75.93;23.60;;;;;;;;;;4953001;29;20102;-83
2020/12/29 12:37:54;;;;;;;60.50;21.58;;;;;;;;;;4952492;29;20068;-83
2020/12/29 12:40:23;;;;;;;66.00;24.45;;;;;;;;;;4953676;28;20102;-84
2020/12/29 12:42:52;;;;;;;66.15;24.13;;;;;;;;;;4953695;28;20067;-83
2020/12/29 12:45:19;;;;;;;63.58;21.67;;;;;;;;;;4952874;29;20464;-83
2020/12/29 12:47:48;;;;;;;63.45;22.55;;;;;;;;;;4952308;28;20047;-83
2020/12/29 12:50:15;;;;;;;61.67;21.65;;;;;;;;;;4952990;29;20690;-83
2020/12/29 12:52:43;;;;;;;65.07;22.25;;;;;;;;;;4951745;29;20051;-84
2020/12/29 12:55:09;;;;;;;58.67;22.08;;;;;;;;;;4952079;29;20075;-83
2020/12/29 12:57:36;;;;;;;66.38;22.00;;;;;;;;;;4952219;28;20456;-83
2020/12/29 13:00:03;;;;;;;64.55;22.40;;;;;;;;;;4953366;29;20051;-82
2020/12/29 13:02:30;;;;;;;66.72;23.15;;;;;;;;;;4952185;28;20122;-82
2020/12/29 13:04:57;;;;;;;63.95;21.90;;;;;;;;;;4953374;29;20706;-81
2020/12/29 13:07:26;;;;;;;56.55;20.60;;;;;;;;;;4951775;29;20134;-82
2020/12/29 13:09:54;;;;;;;58.88;21.42;;;;;;;;;;4952331;29;20082;-82
2020/12/29 13:12:20;;;;;;;63.35;22.35;;;;;;;;;;4953244;28;20073;-83
2020/12/29 13:14:47;;;;;;;61.95;22.45;;;;;;;;;;4952376;28;20493;-82
2020/12/29 13:17:16;;;;;;;56.83;21.40;;;;;;;;;;4952022;29;20099;-82
2020/12/29 13:19:42;;;;;;;61.30;21.25;;;;;;;;;;4952168;29;20110;-82
2020/12/29 13:22:10;;;;;;;54.83;22.02;;;;;;;;;;4952248;28;20102;-82
2020/12/29 13:24:37;;;;;;;57.83;22.75;;;;;;;;;;4952374;29;20075;-81
2020/12/29 13:27:04;;;;;;;52.88;21.60;;;;;;;;;;4953080;28;20047;-81
2020/12/29 13:29:31;;;;;;;53.10;20.88;;;;;;;;;;4953515;28;20046;-81
2020/12/29 13:31:58;;;;;;;54.35;20.13;;;;;;;;;;4952449;29;20121;-81
2020/12/29 13:34:25;;;;;;;55.00;20.65;;;;;;;;;;4952792;28;20079;-81
2020/12/29 13:36:51;;;;;;;46.40;18.40;;;;;;;;;;4952099;29;20051;-81
2020/12/29 13:39:27;;;;;;;46.73;18.43;;;;;;;;;;4952636;29;20683;-80
2020/12/29 13:42:00;;;;;;;48.45;19.35;;;;;;;;;;4953691;28;20306;-80
2020/12/29 13:44:28;;;;;;;54.75;20.17;;;;;;;;;;4954830;28;20507;-81
2020/12/29 13:46:54;;;;;;;47.85;19.70;;;;;;;;;;4952723;28;20098;-80
2020/12/29 13:49:21;;;;;;;53.15;19.40;;;;;;;;;;4961273;28;20138;-80
2020/12/29 13:51:48;;;;;;;56.97;18.45;;;;;;;;;;4955079;28;20059;-79
2020/12/29 13:54:14;;;;;;;40.85;17.42;;;;;;;;;;4953178;28;20051;-80
2020/12/29 13:56:42;;;;;;;47.85;18.55;;;;;;;;;;4954848;28;20055;-80
2020/12/29 13:59:11;;;;;;;40.67;18.42;;;;;;;;;;4951514;28;20058;-80
2020/12/29 14:01:38;;;;;;;40.25;17.35;;;;;;;;;;4941707;28;20051;-81
2020/12/29 14:04:05;;;;;;;43.22;18.42;;;;;;;;;;4936578;29;20104;-80
2020/12/29 14:06:31;;;;;;;42.60;17.83;;;;;;;;;;4935688;29;20075;-79
2020/12/29 14:08:58;;;;;;;43.15;17.30;;;;;;;;;;4944252;29;20134;-80
2020/12/29 14:11:25;;;;;;;45.60;18.75;;;;;;;;;;4955148;28;20082;-80
2020/12/29 14:13:56;;;;;;;44.95;18.55;;;;;;;;;;4953384;29;20488;-78
2020/12/29 14:16:26;;;;;;;52.85;19.00;;;;;;;;;;4954741;29;20133;-86
2020/12/29 14:18:53;;;;;;;92.78;24.23;;;;;;;;;;4953326;29;20467;-86
2020/12/29 14:21:20;;;;;;;49.95;19.83;;;;;;;;;;4954807;28;20106;-81
2020/12/29 14:23:46;;;;;;;51.25;19.88;;;;;;;;;;4954331;29;20047;-80
2020/12/29 14:26:13;;;;;;;55.15;21.92;;;;;;;;;;4955247;28;20133;-81
2020/12/29 14:28:46;;;;;;;44.92;19.25;;;;;;;;;;4954729;29;20047;-80
2020/12/29 14:31:14;;;;;;;49.95;18.70;;;;;;;;;;4954253;29;20141;-81
2020/12/29 14:33:41;;;;;;;50.65;19.58;;;;;;;;;;4954888;28;20141;-82
2020/12/29 14:36:08;;;;;;;44.63;18.30;;;;;;;;;;4954711;29;20505;-81
2020/12/29 14:38:36;;;;;;;55.00;17.58;;;;;;;;;;4953722;29;20087;-80
2020/12/29 14:41:03;;;;;;;46.45;19.38;;;;;;;;;;4954554;29;20047;-82